createdAt,value
2022-11-02T00:01:55.961Z,81.28
2022-11-02T00:04:41.201Z,81.38
2022-11-02T00:07:26.846Z,81.50
2022-11-02T00:10:11.756Z,81.01
2022-11-02T00:12:57.201Z,81.01
2022-11-02T00:15:42.304Z,81.51
2022-11-02T00:18:27.395Z,81.38
2022-11-02T00:21:13.252Z,81.13
2022-11-02T00:28:22.713Z,80.89
2022-11-02T00:31:07.757Z,81.14
2022-11-02T00:33:53.101Z,81.24
2022-11-02T00:36:38.424Z,81.23
2022-11-02T00:39:23.306Z,81.26
2022-11-02T00:42:08.355Z,81.05
2022-11-02T00:44:53.667Z,80.74
2022-11-02T00:47:38.648Z,81.28
2022-11-02T00:50:23.482Z,80.94
2022-11-02T00:53:08.441Z,80.90
2022-11-02T00:55:53.669Z,80.86
2022-11-02T00:58:39.322Z,80.75
2022-11-02T01:01:24.591Z,80.77
2022-11-02T01:04:09.826Z,80.83
2022-11-02T01:06:55.346Z,81.10
2022-11-02T01:09:41.055Z,81.17
2022-11-02T01:12:26.426Z,81.11
2022-11-02T01:15:11.363Z,81.42
2022-11-02T01:17:56.770Z,81.36
2022-11-02T01:20:41.967Z,81.21
2022-11-02T01:23:27.119Z,81.29
2022-11-02T01:26:12.206Z,81.46
2022-11-02T01:28:57.341Z,81.58
2022-11-02T01:31:42.607Z,81.79
2022-11-02T01:34:27.710Z,82.49
2022-11-02T01:37:12.856Z,83.83
2022-11-02T01:40:17.810Z,85.39
2022-11-02T01:43:25.111Z,87.41
2022-11-02T01:46:10.872Z,88.53
2022-11-02T01:49:02.334Z,89.36
2022-11-02T01:52:22.616Z,90.40
2022-11-02T01:55:16.405Z,91.41
2022-11-02T01:58:09.867Z,91.35
2022-11-02T02:01:56.812Z,91.72
2022-11-02T02:04:44.011Z,91.93
2022-11-02T02:07:31.304Z,92.26
2022-11-02T02:10:17.187Z,92.41
2022-11-02T02:13:05.655Z,92.19
2022-11-02T02:16:15.649Z,91.27
2022-11-02T02:19:05.203Z,91.33
2022-11-02T02:22:15.969Z,91.30
2022-11-02T02:28:21.683Z,91.23
2022-11-02T02:34:56.298Z,91.34
2022-11-02T02:37:45.930Z,91.79
2022-11-02T02:40:35.958Z,91.31
2022-11-02T02:43:29.173Z,90.91
2022-11-02T02:46:23.599Z,89.95
2022-11-02T02:49:12.616Z,89.44
2022-11-02T02:51:59.914Z,88.96
2022-11-02T02:54:47.152Z,88.30
2022-11-02T02:57:35.266Z,88.45
2022-11-02T03:00:20.537Z,88.17
2022-11-02T03:03:15.885Z,88.37
2022-11-02T03:06:10.099Z,88.23
2022-11-02T03:09:02.475Z,87.89
2022-11-02T03:12:01.718Z,87.68
2022-11-02T03:14:47.087Z,87.44
2022-11-02T03:17:40.324Z,87.63
2022-11-02T03:20:33.491Z,87.18
2022-11-02T03:23:28.764Z,86.73
2022-11-02T03:26:26.175Z,86.78
2022-11-02T03:29:18.676Z,87.06
2022-11-02T03:32:09.152Z,86.77
2022-11-02T03:34:57.939Z,86.58
2022-11-02T03:37:49.695Z,86.75
2022-11-02T03:40:40.666Z,87.11
2022-11-02T03:43:26.502Z,86.91
2022-11-02T03:46:12.493Z,86.58
2022-11-02T03:48:57.497Z,86.69
2022-11-02T03:51:45.071Z,86.80
2022-11-02T03:54:41.832Z,86.75
2022-11-02T04:01:11.108Z,86.54
2022-11-02T04:03:56.739Z,87.17
2022-11-02T04:06:42.828Z,87.61
2022-11-02T04:09:28.224Z,87.89
2022-11-02T04:12:13.602Z,88.21
2022-11-02T04:14:58.920Z,87.72
2022-11-02T04:17:44.460Z,87.78
2022-11-02T04:20:29.412Z,88.22
2022-11-02T04:23:14.915Z,88.20
2022-11-02T04:26:00.179Z,88.15
2022-11-02T04:28:45.476Z,88.32
2022-11-02T04:31:31.234Z,88.46
2022-11-02T04:34:16.723Z,88.40
2022-11-02T04:37:01.968Z,87.93
2022-11-02T04:39:47.001Z,88.18
2022-11-02T04:42:32.130Z,88.10
2022-11-02T04:45:17.444Z,88.07
2022-11-02T04:48:20.730Z,87.91
2022-11-02T04:51:05.977Z,87.91
2022-11-02T04:53:53.406Z,87.66
2022-11-02T04:56:38.640Z,87.38
2022-11-02T04:59:23.993Z,87.27
2022-11-02T05:02:09.238Z,86.94
2022-11-02T05:04:54.529Z,86.51
2022-11-02T05:07:40.161Z,85.88
2022-11-02T05:10:25.395Z,86.11
2022-11-02T05:13:10.844Z,86.37
2022-11-02T05:15:57.241Z,86.06
2022-11-02T05:18:43.064Z,86.36
2022-11-02T05:21:28.212Z,85.88
2022-11-02T05:24:13.138Z,85.22
2022-11-02T05:26:58.633Z,84.91
2022-11-02T05:29:43.901Z,84.81
2022-11-02T05:33:00.927Z,84.71
2022-11-02T05:39:12.051Z,85.64
2022-11-02T05:41:57.505Z,86.05
2022-11-02T05:44:42.937Z,86.37
2022-11-02T05:47:28.148Z,86.86
2022-11-02T05:50:13.754Z,86.54
2022-11-02T05:52:59.029Z,86.55
2022-11-02T05:55:43.849Z,86.57
2022-11-02T05:58:28.985Z,86.60
2022-11-02T06:01:14.402Z,86.85
2022-11-02T06:03:59.827Z,86.22
2022-11-02T06:06:45.260Z,86.13
2022-11-02T06:09:30.246Z,85.41
2022-11-02T06:12:15.626Z,84.92
2022-11-02T06:15:00.641Z,84.94
2022-11-02T06:17:46.011Z,85.10
2022-11-02T06:20:31.041Z,84.51
2022-11-02T06:23:16.391Z,84.44
2022-11-02T06:26:02.229Z,84.36
2022-11-02T06:28:47.066Z,83.90
2022-11-02T06:31:31.941Z,82.93
2022-11-02T06:34:17.334Z,82.79
2022-11-02T06:37:02.506Z,82.73
2022-11-02T06:39:48.119Z,82.85
2022-11-02T06:42:36.983Z,82.40
2022-11-02T06:45:30.014Z,81.85
2022-11-02T06:48:15.501Z,81.77
2022-11-02T06:54:37.476Z,81.79
2022-11-02T06:57:22.863Z,81.32
2022-11-02T07:00:15.555Z,81.43
2022-11-02T07:03:06.157Z,81.90
2022-11-02T07:05:52.539Z,81.64
2022-11-02T07:08:37.955Z,81.00
2022-11-02T07:11:22.864Z,80.70
2022-11-02T07:14:08.059Z,80.65
2022-11-02T07:16:53.250Z,81.12
2022-11-02T07:19:38.087Z,81.15
2022-11-02T07:22:23.158Z,81.60
2022-11-02T07:25:08.745Z,81.52
2022-11-02T07:27:59.039Z,81.42
2022-11-02T07:30:44.388Z,81.20
2022-11-02T07:33:29.556Z,81.08
2022-11-02T07:36:14.522Z,81.20
2022-11-02T07:39:00.625Z,80.58
2022-11-02T07:41:50.815Z,80.44
2022-11-02T07:44:37.409Z,80.35
2022-11-02T07:47:22.415Z,80.21
2022-11-02T07:50:07.647Z,79.56
2022-11-02T07:52:55.228Z,79.13
2022-11-02T07:55:40.451Z,79.83
2022-11-02T07:58:26.057Z,79.37
2022-11-02T08:01:11.331Z,77.61
2022-11-02T08:03:57.770Z,76.81
2022-11-02T08:06:43.205Z,75.80
2022-11-02T08:09:28.536Z,75.60
2022-11-02T08:12:13.557Z,74.74
2022-11-02T08:15:01.239Z,74.36
2022-11-02T08:18:14.195Z,75.25
2022-11-02T08:20:59.582Z,75.96
2022-11-02T08:23:44.572Z,76.25
2022-11-02T08:26:29.661Z,76.64
2022-11-02T08:29:14.688Z,76.65
2022-11-02T08:31:59.564Z,76.38
2022-11-02T08:34:44.609Z,76.35
2022-11-02T08:37:30.067Z,76.87
2022-11-02T08:40:15.429Z,76.68
2022-11-02T08:43:02.595Z,76.80
2022-11-02T08:46:13.730Z,77.15
2022-11-02T08:48:53.542Z,76.88
2022-11-02T08:51:38.326Z,77.22
2022-11-02T08:54:23.687Z,76.53
2022-11-02T08:57:08.543Z,76.54
2022-11-02T08:59:53.608Z,76.82
2022-11-02T09:02:38.899Z,76.33
2022-11-02T09:05:24.305Z,76.00
2022-11-02T09:08:17.376Z,75.36
2022-11-02T09:11:03.583Z,75.58
2022-11-02T09:13:52.813Z,75.93
2022-11-02T09:16:45.324Z,76.18
2022-11-02T09:19:30.674Z,75.40
2022-11-02T09:22:16.069Z,75.34
2022-11-02T09:25:01.501Z,75.54
2022-11-02T09:27:50.401Z,74.94
2022-11-02T09:30:37.994Z,74.59
2022-11-02T09:33:23.411Z,74.46
2022-11-02T09:36:08.552Z,74.38
2022-11-02T09:38:53.412Z,74.12
2022-11-02T09:41:56.816Z,74.89
2022-11-02T09:44:56.888Z,74.17
2022-11-02T09:51:37.925Z,74.00
2022-11-02T09:54:32.633Z,73.58
2022-11-02T09:57:27.496Z,74.21
2022-11-02T10:00:14.389Z,73.14
2022-11-02T10:03:16.330Z,73.20
2022-11-02T10:06:12.264Z,72.32
2022-11-02T10:09:09.311Z,72.54
2022-11-02T10:12:23.211Z,72.85
2022-11-02T10:15:18.542Z,73.37
2022-11-02T10:18:04.999Z,73.39
2022-11-02T10:20:54.034Z,73.21
2022-11-02T10:23:49.816Z,73.18
2022-11-02T10:26:37.439Z,72.79
2022-11-02T10:29:45.010Z,73.63
2022-11-02T10:32:36.461Z,73.64
2022-11-02T10:35:45.762Z,73.95
2022-11-02T10:38:45.525Z,73.99
2022-11-02T10:41:40.085Z,73.25
2022-11-02T10:44:56.412Z,73.00
2022-11-02T10:47:53.522Z,72.32
2022-11-02T10:51:07.355Z,71.10
2022-11-02T10:53:53.319Z,70.68
2022-11-02T10:56:39.610Z,69.81
2022-11-02T10:59:24.563Z,68.66
2022-11-02T11:02:14.620Z,68.35
2022-11-02T11:05:13.672Z,69.51
2022-11-02T11:08:00.568Z,68.44
2022-11-02T11:10:45.861Z,68.79
2022-11-02T11:16:39.762Z,69.67
2022-11-02T11:19:40.603Z,67.11
2022-11-02T11:22:29.441Z,69.22
2022-11-02T11:25:27.629Z,68.62
2022-11-02T11:28:31.311Z,67.36
2022-11-02T11:31:17.830Z,67.46
2022-11-02T11:34:03.042Z,66.51
2022-11-02T11:36:48.493Z,66.18
2022-11-02T11:39:44.950Z,66.28
2022-11-02T11:42:35.459Z,66.08
2022-11-02T11:45:22.562Z,63.97
2022-11-02T11:48:27.134Z,64.93
2022-11-02T11:51:31.057Z,64.34
2022-11-02T11:54:30.588Z,65.87
2022-11-02T11:57:31.141Z,65.24
2022-11-02T12:00:28.215Z,64.70
2022-11-02T12:03:14.008Z,65.45
2022-11-02T12:06:28.581Z,66.43
2022-11-02T12:09:30.593Z,65.49
2022-11-02T12:12:29.004Z,65.55
2022-11-02T12:15:22.688Z,65.72
2022-11-02T12:18:22.999Z,64.71
2022-11-02T12:21:20.780Z,62.56
2022-11-02T12:24:08.761Z,61.04
2022-11-02T12:27:04.265Z,60.99
2022-11-02T12:29:59.988Z,61.30
2022-11-02T12:33:07.337Z,61.05
2022-11-02T12:36:16.157Z,60.14
2022-11-02T12:39:07.320Z,60.28
2022-11-02T12:42:00.293Z,61.12
2022-11-02T12:45:04.321Z,61.62
2022-11-02T12:48:05.137Z,61.22
2022-11-02T12:50:57.367Z,62.07
2022-11-02T12:53:48.624Z,61.66
2022-11-02T12:56:51.638Z,62.32
2022-11-02T12:59:40.453Z,62.20
2022-11-02T13:02:51.458Z,60.09
2022-11-02T13:05:46.951Z,60.96
2022-11-02T13:09:24.188Z,59.44
2022-11-02T13:12:35.488Z,57.59
2022-11-02T13:15:45.938Z,57.73
2022-11-02T13:18:54.995Z,57.21
2022-11-02T13:25:22.963Z,58.10
2022-11-02T13:28:28.868Z,58.94
2022-11-02T13:31:28.211Z,59.65
2022-11-02T13:34:29.171Z,59.72
2022-11-02T13:37:31.172Z,61.37
2022-11-02T13:40:32.053Z,60.59
2022-11-02T13:43:50.352Z,59.54
2022-11-02T13:47:50.142Z,59.34
2022-11-02T13:50:42.624Z,59.37
2022-11-02T13:53:33.668Z,59.61
2022-11-02T14:00:23.373Z,58.50
2022-11-02T14:03:33.562Z,59.50
2022-11-02T14:06:20.645Z,59.63
2022-11-02T14:09:08.902Z,59.85
2022-11-02T14:12:13.455Z,59.80
2022-11-02T14:15:14.163Z,60.48
2022-11-02T14:18:15.000Z,60.57
2022-11-02T14:21:45.743Z,60.64
2022-11-02T14:24:33.754Z,60.69
2022-11-02T14:27:19.237Z,60.84
2022-11-02T14:30:05.000Z,61.70
2022-11-02T14:33:05.327Z,61.44
2022-11-02T14:36:00.196Z,61.28
2022-11-02T14:39:07.048Z,62.05
2022-11-02T14:44:55.409Z,62.56
2022-11-02T14:47:40.615Z,62.53
2022-11-02T14:50:25.793Z,61.38
2022-11-02T14:53:26.092Z,61.35
2022-11-02T14:56:11.178Z,62.58
2022-11-02T14:58:59.193Z,61.63
2022-11-02T15:02:27.524Z,62.72
2022-11-02T15:05:48.156Z,62.75
2022-11-02T15:08:37.974Z,62.02
2022-11-02T15:11:42.452Z,62.16
2022-11-02T15:14:37.048Z,61.52
2022-11-02T15:17:22.891Z,62.26
2022-11-02T15:20:14.325Z,62.05
2022-11-02T15:23:30.368Z,62.83
2022-11-02T15:26:22.974Z,62.90
2022-11-02T15:29:16.322Z,63.84
2022-11-02T15:32:03.891Z,63.86
2022-11-02T15:34:51.535Z,64.50
2022-11-02T15:37:56.538Z,64.52
2022-11-02T15:40:51.362Z,64.55
2022-11-02T15:44:04.233Z,64.29
2022-11-02T15:47:32.580Z,64.71
2022-11-02T15:50:44.802Z,64.80
2022-11-02T15:53:41.708Z,65.39
2022-11-02T15:56:43.844Z,65.99
2022-11-02T15:59:51.087Z,66.31
2022-11-02T16:02:45.671Z,66.74
2022-11-02T16:05:43.832Z,67.00
2022-11-02T16:08:34.196Z,66.87
2022-11-02T16:11:19.928Z,67.08
2022-11-02T16:14:18.482Z,67.16
2022-11-02T16:17:04.252Z,67.46
2022-11-02T16:19:49.787Z,67.90
2022-11-02T16:22:35.578Z,68.12
2022-11-02T16:25:39.619Z,68.38
2022-11-02T16:28:27.443Z,68.46
2022-11-02T16:31:18.494Z,68.99
2022-11-02T16:34:19.671Z,69.29
2022-11-02T16:37:10.373Z,69.28
2022-11-02T16:39:55.840Z,69.85
2022-11-02T16:42:43.209Z,69.91
2022-11-02T16:45:35.883Z,70.19
2022-11-02T16:48:27.480Z,70.56
2022-11-02T16:51:14.825Z,70.91
2022-11-02T16:54:33.260Z,71.16
2022-11-02T16:57:22.224Z,70.96
2022-11-02T17:00:34.221Z,71.46
2022-11-02T17:03:41.529Z,72.32
2022-11-02T17:06:27.018Z,73.27
2022-11-02T17:09:28.609Z,73.59
2022-11-02T17:12:16.236Z,73.55
2022-11-02T17:15:10.855Z,74.03
2022-11-02T17:18:08.708Z,74.30
2022-11-02T17:21:14.245Z,74.21
2022-11-02T17:24:00.130Z,74.26
2022-11-02T17:26:45.753Z,74.56
2022-11-02T17:29:31.199Z,74.93
2022-11-02T17:32:17.616Z,74.89
2022-11-02T17:35:03.539Z,75.21
2022-11-02T17:37:49.573Z,75.80
2022-11-02T17:40:34.785Z,76.45
2022-11-02T17:43:21.281Z,76.52
2022-11-02T17:46:08.411Z,77.58
2022-11-02T17:48:53.881Z,77.36
2022-11-02T17:51:39.594Z,77.55
2022-11-02T17:54:25.164Z,78.55
2022-11-02T17:57:14.510Z,78.99
2022-11-02T17:59:59.806Z,79.85
2022-11-02T18:02:49.739Z,79.63
2022-11-02T18:05:37.301Z,79.60
2022-11-02T18:08:23.099Z,80.11
2022-11-02T18:11:08.992Z,80.89
2022-11-02T18:13:54.585Z,81.73
2022-11-02T18:16:40.047Z,82.18
2022-11-02T18:19:25.669Z,81.96
2022-11-02T18:22:12.213Z,82.42
2022-11-02T18:24:57.333Z,82.88
2022-11-02T18:28:01.131Z,82.90
2022-11-02T18:30:46.164Z,82.91
2022-11-02T18:33:31.126Z,83.09
2022-11-02T18:36:19.266Z,83.68
2022-11-02T18:39:04.371Z,83.61
2022-11-02T18:41:49.402Z,83.62
2022-11-02T18:44:34.682Z,83.29
2022-11-02T18:47:20.043Z,82.84
2022-11-02T18:50:07.085Z,82.76
2022-11-02T18:52:52.223Z,83.05
2022-11-02T18:55:38.473Z,83.37
2022-11-02T18:58:23.570Z,83.47
2022-11-02T19:01:10.458Z,83.04
2022-11-02T19:03:58.122Z,82.71
2022-11-02T19:06:43.177Z,82.37
2022-11-02T19:09:28.556Z,82.31
2022-11-02T19:12:19.477Z,82.68
2022-11-02T19:15:06.089Z,82.76
2022-11-02T19:17:51.414Z,82.76
2022-11-02T19:20:36.500Z,82.94
2022-11-02T19:23:21.447Z,82.92
2022-11-02T19:26:06.372Z,82.91
2022-11-02T19:28:51.640Z,83.00
2022-11-02T19:31:36.876Z,83.13
2022-11-02T19:34:22.487Z,82.82
2022-11-02T19:37:07.940Z,82.68
2022-11-02T19:39:52.922Z,82.67
2022-11-02T19:42:37.859Z,82.92
2022-11-02T19:45:23.102Z,83.37
2022-11-02T19:48:08.393Z,83.71
2022-11-02T19:50:53.662Z,83.86
2022-11-02T19:53:40.364Z,83.91
2022-11-02T19:56:27.149Z,83.95
2022-11-02T19:59:12.474Z,84.17
2022-11-02T20:01:57.970Z,84.46
2022-11-02T20:04:45.013Z,85.08
2022-11-02T20:07:30.261Z,85.39
2022-11-02T20:10:15.675Z,85.93
2022-11-02T20:13:00.924Z,85.97
2022-11-02T20:15:45.957Z,86.09
2022-11-02T20:18:31.213Z,86.36
2022-11-02T20:21:19.284Z,86.58
2022-11-02T20:24:04.957Z,86.88
2022-11-02T20:26:49.729Z,86.89
2022-11-02T20:29:34.911Z,87.14
2022-11-02T20:32:20.119Z,87.16
2022-11-02T20:35:09.669Z,87.92
2022-11-02T20:37:57.414Z,88.15
2022-11-02T20:40:42.416Z,88.39
2022-11-02T20:43:27.407Z,88.01
2022-11-02T20:49:29.300Z,88.45
2022-11-02T20:52:21.329Z,89.07
2022-11-02T20:55:07.123Z,88.75
2022-11-02T20:57:52.392Z,89.18
2022-11-02T21:00:37.644Z,89.00
2022-11-02T21:03:23.490Z,89.20
2022-11-02T21:06:08.920Z,89.53
2022-11-02T21:08:54.158Z,89.41
2022-11-02T21:11:39.215Z,89.16
2022-11-02T21:14:24.603Z,88.99
2022-11-02T21:17:09.792Z,89.15
2022-11-02T21:19:58.258Z,89.12
2022-11-02T21:22:50.187Z,88.98
2022-11-02T21:25:35.589Z,88.74
2022-11-02T21:28:20.665Z,88.63
2022-11-02T21:31:07.966Z,88.73
2022-11-02T21:33:53.227Z,88.52
2022-11-02T21:36:38.257Z,88.45
2022-11-02T21:39:23.655Z,88.25
2022-11-02T21:42:08.782Z,87.85
2022-11-02T21:44:53.942Z,88.27
2022-11-02T21:47:39.419Z,87.90
2022-11-02T21:50:24.363Z,87.77
2022-11-02T21:53:09.911Z,87.46
2022-11-02T21:55:59.739Z,87.50
2022-11-02T21:58:46.465Z,87.35
2022-11-02T22:01:33.096Z,87.49
2022-11-02T22:04:19.315Z,87.46
2022-11-02T22:07:04.965Z,87.02
2022-11-02T22:09:50.232Z,87.07
2022-11-02T22:12:35.746Z,86.67
2022-11-02T22:15:21.120Z,86.62
2022-11-02T22:18:06.078Z,86.25
2022-11-02T22:20:55.242Z,86.03
2022-11-02T22:23:41.570Z,86.04
2022-11-02T22:26:28.568Z,85.87
2022-11-02T22:29:13.546Z,85.56
2022-11-02T22:31:58.951Z,85.44
2022-11-02T22:34:44.092Z,85.62
2022-11-02T22:37:28.916Z,85.62
2022-11-02T22:40:13.820Z,85.58
2022-11-02T22:42:59.060Z,85.89
2022-11-02T22:45:45.443Z,85.76
2022-11-02T22:48:31.087Z,85.60
2022-11-02T22:51:16.706Z,85.70
2022-11-02T22:54:04.493Z,85.51
2022-11-02T22:56:49.504Z,85.65
2022-11-02T22:59:34.384Z,85.63
2022-11-02T23:02:19.749Z,85.60
2022-11-02T23:05:05.531Z,85.83
2022-11-02T23:07:50.447Z,85.98
2022-11-02T23:10:39.215Z,86.09
2022-11-02T23:13:24.696Z,85.97
2022-11-02T23:16:11.978Z,85.87
2022-11-02T23:19:03.322Z,86.09
2022-11-02T23:21:51.277Z,86.09
2022-11-02T23:24:43.603Z,86.06
2022-11-02T23:27:30.067Z,86.22
2022-11-02T23:30:15.524Z,86.26
2022-11-02T23:33:00.864Z,86.44
2022-11-02T23:35:46.198Z,86.33
2022-11-02T23:38:31.299Z,86.51
2022-11-02T23:41:17.952Z,86.48
2022-11-02T23:44:02.926Z,86.59
2022-11-02T23:46:48.309Z,86.33
2022-11-02T23:49:33.392Z,86.40
2022-11-02T23:52:18.569Z,86.75
2022-11-02T23:55:03.966Z,86.33
2022-11-02T23:57:49.139Z,86.47
